Time;durP1;ratioP1;P1;durP2;ratioP2;P2;SDS_P1;SDS_P2;PMS_P1;PMS_P2;Temp;Humidity;BMP_temperature;BMP_pressure;BME280_temperature;BME280_humidity;BME280_pressure;Samples;Min_cycle;Max_cycle;Signal;HPM_P1;HPM_P2
2023/11/19 00:02:24;;;;;;;53.40;26.20;;;;;;;1.58;100.00;99585.91;271411;1269;22409;-83
2023/11/19 00:08:27;;;;;;;48.50;25.20;;;;;;;1.57;100.00;99574.92;273230;1269;22240;-81
2023/11/19 00:14:29;;;;;;;50.50;27.00;;;;;;;1.59;100.00;99570.84;271283;1269;23912;-82
2023/11/19 00:20:31;;;;;;;50.90;26.70;;;;;;;1.59;100.00;99562.70;271642;1267;22582;-81
2023/11/19 00:26:33;;;;;;;53.20;27.10;;;;;;;1.60;100.00;99562.77;271241;1269;23023;-82
2023/11/19 00:32:37;;;;;;;53.60;27.30;;;;;;;1.58;100.00;99560.99;273082;1269;22682;-82
2023/11/19 00:38:39;;;;;;;54.00;26.40;;;;;;;1.59;100.00;99543.32;273237;1269;23426;-83
2023/11/19 00:44:42;;;;;;;55.20;27.60;;;;;;;1.58;100.00;99530.43;273311;1269;22338;-82
2023/11/19 00:50:45;;;;;;;55.80;28.60;;;;;;;1.56;100.00;99517.58;273212;1269;22294;-83
2023/11/19 00:56:47;;;;;;;52.50;25.90;;;;;;;1.53;100.00;99514.88;273112;1269;22402;-82
2023/11/19 01:02:50;;;;;;;47.60;24.50;;;;;;;1.53;100.00;99511.10;273318;1269;22391;-82
2023/11/19 01:08:52;;;;;;;48.30;23.70;;;;;;;1.54;100.00;99499.27;273209;1269;22509;-83
2023/11/19 01:14:54;;;;;;;53.70;25.10;;;;;;;1.57;100.00;99498.95;273265;1269;22465;-81
2023/11/19 01:20:57;;;;;;;49.90;26.00;;;;;;;1.58;100.00;99493.41;273345;1269;22314;-82
2023/11/19 01:27:00;;;;;;;50.50;24.00;;;;;;;1.58;100.00;99495.46;272481;1269;22528;-82
2023/11/19 01:33:02;;;;;;;49.00;25.20;;;;;;;1.58;100.00;99501.30;272265;1269;22388;-82
2023/11/19 01:39:06;;;;;;;52.80;25.40;;;;;;;1.59;100.00;99493.66;272370;1270;22588;-81
2023/11/19 01:45:09;;;;;;;49.30;24.70;;;;;;;1.59;100.00;99495.01;271194;1269;23608;-82
2023/11/19 01:51:13;;;;;;;44.60;24.40;;;;;;;1.59;100.00;99487.52;270872;1269;23251;-82
2023/11/19 01:57:15;;;;;;;50.70;25.40;;;;;;;1.56;100.00;99472.30;270278;1269;22513;-82
2023/11/19 02:03:17;;;;;;;48.90;24.10;;;;;;;1.54;100.00;99466.31;270812;1269;22567;-82
2023/11/19 02:09:19;;;;;;;49.40;25.50;;;;;;;1.52;100.00;99456.67;271052;1269;22387;-82
2023/11/19 02:15:24;;;;;;;51.70;26.00;;;;;;;1.55;100.00;99444.27;273108;1269;22170;-82
2023/11/19 02:21:26;;;;;;;47.80;24.40;;;;;;;1.57;100.00;99438.56;270330;1269;22573;-83
2023/11/19 02:27:55;;;;;;;45.40;23.80;;;;;;;1.55;100.00;99420.74;269797;1269;22557;-82
2023/11/19 02:34:21;;;;;;;52.20;25.80;;;;;;;1.54;100.00;99393.82;271073;1252;84813;-91
2023/11/19 02:40:25;;;;;;;53.00;26.90;;;;;;;1.53;100.00;99377.27;269040;1272;24863;-91
2023/11/19 02:53:27;;;;;;;49.40;26.80;;;;;;;1.57;100.00;99353.12;261176;1304;545046;-90
2023/11/19 02:59:38;;;;;;;54.10;27.10;;;;;;;1.58;100.00;99349.81;266922;1279;22989;-91
2023/11/19 03:05:46;;;;;;;57.40;27.10;;;;;;;1.54;100.00;99327.40;265622;1278;2090736;-91
2023/11/19 03:12:33;;;;;;;56.80;27.00;;;;;;;1.51;100.00;99309.14;267186;1277;23784;-94
2023/11/19 03:18:39;;;;;;;;;;;;;;;1.47;100.00;99297.37;267456;1276;25360;-91
2023/11/19 03:24:44;;;;;;;53.60;26.80;;;;;;;1.44;100.00;99276.34;267515;1278;22672;-92
2023/11/19 03:30:49;;;;;;;51.20;25.50;;;;;;;1.43;100.00;99266.48;267754;1277;25289;-92
2023/11/19 03:36:56;;;;;;;51.90;25.40;;;;;;;1.46;100.00;99264.36;267428;1274;24270;-92
2023/11/19 03:43:23;;;;;;;57.00;27.90;;;;;;;1.48;100.00;99262.48;267488;1276;24354;-95
2023/11/19 03:49:29;;;;;;;57.40;27.00;;;;;;;1.46;100.00;99260.12;267432;1277;22574;-91
2023/11/19 03:55:39;;;;;;;57.00;25.20;;;;;;;1.40;100.00;99247.38;267227;1277;22521;-93
2023/11/19 04:01:44;;;;;;;52.10;24.80;;;;;;;1.27;100.00;99224.51;267475;1277;23900;-92
2023/11/19 04:07:51;;;;;;;48.80;23.30;;;;;;;1.13;100.00;99211.92;267652;1278;25216;-93
2023/11/19 04:14:00;;;;;;;56.00;24.60;;;;;;;1.03;100.00;99213.35;267537;1278;22609;-92
2023/11/19 04:20:06;;;;;;;55.10;24.50;;;;;;;1.01;100.00;99216.53;267590;1277;22544;-90
2023/11/19 04:26:09;;;;;;;58.80;24.90;;;;;;;0.97;100.00;99206.20;267771;1278;22575;-90
2023/11/19 04:32:16;;;;;;;57.80;27.70;;;;;;;0.90;100.00;99190.87;267091;1278;22567;-91
2023/11/19 04:38:22;;;;;;;60.40;25.90;;;;;;;0.85;100.00;99180.27;267074;1264;22607;-91
2023/11/19 04:44:27;;;;;;;58.80;27.10;;;;;;;0.79;100.00;99166.30;267010;1278;23105;-91
2023/11/19 04:50:33;;;;;;;60.80;27.10;;;;;;;0.73;100.00;99150.33;267092;1277;24284;-91
2023/11/19 04:56:40;;;;;;;64.30;28.40;;;;;;;0.67;100.00;99140.68;267206;1278;22585;-91
2023/11/19 05:03:08;;;;;;;54.00;25.40;;;;;;;0.55;100.00;99137.36;268630;1270;22586;-91
2023/11/19 05:09:13;;;;;;;58.30;24.60;;;;;;;0.45;100.00;99141.25;268502;1256;22537;-91
2023/11/19 05:15:39;;;;;;;57.70;25.70;;;;;;;0.40;100.00;99143.58;268466;1270;23436;-91
2023/11/19 05:21:43;;;;;;;57.60;26.10;;;;;;;0.29;100.00;99138.30;268739;1269;22558;-90
2023/11/19 05:28:04;;;;;;;60.10;27.30;;;;;;;0.14;100.00;99131.73;268586;1270;22601;-91
2023/11/19 05:34:09;;;;;;;63.50;28.10;;;;;;;0.02;100.00;99131.38;268690;1270;22556;-91
2023/11/19 05:40:18;;;;;;;59.30;25.40;;;;;;;-0.07;100.00;99126.13;268510;1270;22704;-92
2023/11/19 05:46:22;;;;;;;56.60;25.80;;;;;;;-0.10;100.00;99133.73;268675;1270;23404;-91
2023/11/19 05:52:28;;;;;;;57.60;27.50;;;;;;;-0.12;100.00;99123.81;268886;1269;22457;-91
2023/11/19 05:58:32;;;;;;;66.30;28.70;;;;;;;-0.19;100.00;99101.58;268587;1269;22530;-92
2023/11/19 06:04:36;;;;;;;66.30;27.50;;;;;;;-0.24;100.00;99090.98;268524;1270;26206;-90
2023/11/19 06:10:41;;;;;;;56.90;25.60;;;;;;;-0.20;100.00;99083.69;268651;1269;26000;-91
2023/11/19 06:16:51;;;;;;;66.80;29.10;;;;;;;-0.16;100.00;99073.70;268838;1270;22579;-94
2023/11/19 06:22:55;;;;;;;70.40;29.70;;;;;;;-0.16;100.00;99070.45;268952;1269;22564;-92
2023/11/19 06:28:57;;;;;;;87.90;35.50;;;;;;;-0.07;100.00;99084.52;269058;1269;22579;-92
2023/11/19 06:35:05;;;;;;;77.20;33.20;;;;;;;0.00;100.00;99083.18;269222;1269;22558;-92
2023/11/19 06:41:11;;;;;;;73.80;32.80;;;;;;;0.07;100.00;99095.26;269594;1269;22541;-94
2023/11/19 06:47:16;;;;;;;;;;;;;;;0.17;100.00;99093.22;268806;1270;22561;-90
2023/11/19 06:53:20;;;;;;;74.00;31.70;;;;;;;0.28;100.00;99080.22;268712;1270;25281;-90
2023/11/19 06:59:25;;;;;;;74.80;32.70;;;;;;;0.37;100.00;99073.70;269269;1269;24376;-93
2023/11/19 07:05:28;;;;;;;74.20;32.60;;;;;;;0.41;100.00;99040.38;269058;1270;22654;-92
2023/11/19 07:11:35;;;;;;;73.80;32.90;;;;;;;0.43;100.00;99020.61;268908;1270;23711;-92
2023/11/19 07:17:43;;;;;;;78.30;33.70;;;;;;;0.46;100.00;99013.73;269069;1269;22566;-93
2023/11/19 07:23:52;;;;;;;82.90;34.60;;;;;;;0.55;100.00;99016.25;269249;1270;22550;-92
2023/11/19 07:29:59;;;;;;;77.40;34.90;;;;;;;0.66;100.00;99008.27;268876;1269;22712;-92
2023/11/19 07:36:07;;;;;;;58.30;29.60;;;;;;;0.79;100.00;99003.81;269118;1269;22575;-91
2023/11/19 07:42:11;;;;;;;56.80;28.10;;;;;;;0.90;100.00;99009.60;268921;1270;23366;-96
2023/11/19 07:48:17;;;;;;;60.20;27.10;;;;;;;1.02;100.00;99029.59;269316;1269;22567;-91
2023/11/19 07:54:24;;;;;;;57.50;26.40;;;;;;;1.15;100.00;99024.76;269942;1270;23368;-91
2023/11/19 08:00:40;;;;;;;62.10;27.30;;;;;;;1.30;100.00;99007.39;270162;1267;23211;-92
2023/11/19 08:06:45;;;;;;;61.80;25.10;;;;;;;1.40;100.00;99000.01;270138;1266;22557;-91
2023/11/19 08:13:02;;;;;;;67.20;31.20;;;;;;;1.43;100.00;98995.73;270290;1267;23937;-95
2023/11/19 08:19:06;;;;;;;64.40;29.60;;;;;;;1.54;100.00;98977.75;270018;1266;23281;-92
2023/11/19 08:25:12;;;;;;;67.00;31.10;;;;;;;1.69;100.00;98960.70;269578;1266;22525;-94
2023/11/19 08:31:20;;;;;;;61.70;29.40;;;;;;;1.81;100.00;98941.91;269420;1267;23237;-92
2023/11/19 08:37:25;;;;;;;43.30;21.00;;;;;;;1.96;100.00;98932.52;269662;1267;22700;-93
2023/11/19 08:43:31;;;;;;;33.90;19.10;;;;;;;2.00;100.00;98932.70;269359;1266;23260;-92
2023/11/19 08:49:39;;;;;;;34.40;17.90;;;;;;;2.02;100.00;98937.79;269704;1266;22545;-92
2023/11/19 08:55:44;;;;;;;35.60;16.60;;;;;;;2.08;100.00;98931.90;270358;1266;23200;-93
2023/11/19 09:01:52;;;;;;;25.30;14.80;;;;;;;2.20;100.00;98917.28;270522;1266;23199;-92
2023/11/19 09:07:56;;;;;;;30.80;15.90;;;;;;;2.32;100.00;98912.02;270369;1266;22559;-92
2023/11/19 09:14:02;;;;;;;31.60;16.10;;;;;;;2.36;100.00;98925.48;270330;1267;24256;-92
2023/11/19 09:20:05;;;;;;;32.30;16.10;;;;;;;2.41;100.00;98916.09;270583;1266;22558;-90
2023/11/19 09:26:10;;;;;;;29.20;15.10;;;;;;;2.50;100.00;98892.02;270521;1266;22535;-92
2023/11/19 09:32:18;;;;;;;40.50;20.20;;;;;;;2.53;100.00;98870.04;270565;1267;22559;-92
2023/11/19 09:38:25;;;;;;;31.20;15.50;;;;;;;2.53;100.00;98850.52;270671;1266;22556;-92
2023/11/19 09:44:31;;;;;;;24.20;13.50;;;;;;;2.61;100.00;98838.48;270229;1265;22576;-93
2023/11/19 09:50:34;;;;;;;26.60;13.50;;;;;;;2.68;100.00;98831.33;270042;1267;22510;-92
2023/11/19 09:56:42;;;;;;;25.60;13.40;;;;;;;2.69;100.00;98832.40;270259;1266;22540;-92
2023/11/19 10:02:48;;;;;;;26.60;13.00;;;;;;;2.81;100.00;98833.26;271165;1260;24102;-92
2023/11/19 10:08:51;;;;;;;24.10;13.10;;;;;;;2.94;100.00;98821.38;271142;1266;23069;-92
2023/11/19 10:15:00;;;;;;;25.20;13.20;;;;;;;3.10;100.00;98806.70;270734;1267;22227;-92
2023/11/19 10:21:06;;;;;;;25.00;13.70;;;;;;;3.28;100.00;98791.98;271315;1266;22558;-92
2023/11/19 10:27:14;;;;;;;23.50;11.50;;;;;;;3.39;100.00;98779.69;270574;1267;22576;-91
2023/11/19 10:33:40;;;;;;;23.40;13.10;;;;;;;3.43;100.00;98766.63;272414;1267;22525;-90
2023/11/19 10:40:10;;;;;;;;;;;;;;;3.48;100.00;98749.87;271251;1259;22549;-92
2023/11/19 10:46:13;;;;;;;21.10;12.90;;;;;;;3.56;100.00;98723.98;271472;1266;22676;-91
2023/11/19 10:52:20;;;;;;;20.60;12.70;;;;;;;3.66;100.00;98707.17;271157;1267;23706;-91
2023/11/19 10:58:23;;;;;;;22.30;12.00;;;;;;;3.71;100.00;98683.76;270982;1266;23442;-94
2023/11/19 11:04:27;;;;;;;22.00;13.40;;;;;;;3.78;100.00;98673.23;270477;1267;22525;-91
2023/11/19 11:10:39;;;;;;;21.70;11.80;;;;;;;3.89;100.00;98667.31;270467;1267;22726;-93
2023/11/19 11:16:45;;;;;;;21.00;11.80;;;;;;;3.98;100.00;98659.94;270761;1267;23393;-90
2023/11/19 11:23:20;;;;;;;23.30;11.90;;;;;;;4.03;100.00;98647.48;270630;1267;22642;-93
2023/11/19 11:29:59;;;;;;;27.80;14.10;;;;;;;4.09;100.00;98640.70;271229;1266;23598;-92
2023/11/19 11:36:22;;;;;;;19.30;10.90;;;;;;;4.04;100.00;98629.95;269960;1267;22543;-91
2023/11/19 11:42:26;;;;;;;20.30;10.60;;;;;;;3.99;100.00;98618.27;270268;1267;22600;-91
2023/11/19 11:48:30;;;;;;;20.10;11.10;;;;;;;3.96;100.00;98603.75;270349;1266;22550;-93
2023/11/19 11:54:34;;;;;;;15.30;8.40;;;;;;;3.93;100.00;98608.70;270202;1265;22564;-92
2023/11/19 12:00:43;;;;;;;17.20;10.20;;;;;;;3.88;100.00;98600.45;270745;1266;22571;-92
2023/11/19 12:07:07;;;;;;;14.40;8.10;;;;;;;3.81;100.00;98595.27;271264;1266;22567;-92
2023/11/19 12:13:15;;;;;;;11.20;7.20;;;;;;;3.76;100.00;98584.83;271193;1260;22573;-92
2023/11/19 12:19:20;;;;;;;17.10;8.70;;;;;;;3.63;100.00;98576.22;270104;1266;22821;-91
2023/11/19 12:25:24;;;;;;;;;;;;;;;3.51;100.00;98568.64;270795;1256;22640;-92
2023/11/19 12:31:30;;;;;;;17.20;8.90;;;;;;;3.46;100.00;98556.96;270895;1266;22527;-90
2023/11/19 12:37:32;;;;;;;13.10;7.80;;;;;;;3.30;100.00;98537.13;270761;1267;22619;-90
2023/11/19 12:43:37;;;;;;;12.20;7.30;;;;;;;3.09;100.00;98527.65;271055;1266;22550;-90
2023/11/19 12:49:39;;;;;;;12.30;7.40;;;;;;;2.96;100.00;98515.92;271495;1267;22562;-91
2023/11/19 12:55:42;;;;;;;10.70;7.20;;;;;;;2.79;100.00;98509.79;271253;1267;22530;-90
2023/11/19 13:01:56;;;;;;;13.20;7.70;;;;;;;2.74;100.00;98498.42;271052;1267;22581;-91
2023/11/19 13:08:09;;;;;;;14.00;8.30;;;;;;;2.68;100.00;98488.02;271856;1267;23725;-92
2023/11/19 13:14:12;;;;;;;16.80;10.20;;;;;;;2.65;100.00;98479.67;270562;1267;22586;-91
2023/11/19 13:20:17;;;;;;;20.40;11.60;;;;;;;2.62;100.00;98468.08;270517;1267;22618;-90
2023/11/19 13:26:24;;;;;;;18.70;10.40;;;;;;;2.61;100.00;98459.86;270645;1267;22523;-91
2023/11/19 13:32:27;;;;;;;17.10;10.30;;;;;;;2.61;100.00;98454.29;270647;1266;22551;-91
2023/11/19 13:38:33;;;;;;;24.70;12.80;;;;;;;2.65;100.00;98445.69;270444;1266;22549;-91
2023/11/19 13:44:35;;;;;;;22.90;12.70;;;;;;;2.63;100.00;98434.36;270483;1260;22593;-91
2023/11/19 13:50:38;;;;;;;22.50;11.90;;;;;;;2.63;100.00;98439.70;271041;1267;22615;-92
2023/11/19 13:56:46;;;;;;;23.60;12.80;;;;;;;2.68;100.00;98440.08;271154;1267;23274;-90
2023/11/19 14:02:49;;;;;;;22.40;13.30;;;;;;;2.71;100.00;98434.46;270807;1263;22552;-91
2023/11/19 14:08:53;;;;;;;24.70;15.10;;;;;;;2.71;100.00;98437.56;270894;1266;22549;-91
2023/11/19 14:14:55;;;;;;;29.30;16.00;;;;;;;2.72;100.00;98436.45;270825;1266;22630;-93
2023/11/19 14:21:00;;;;;;;28.40;15.60;;;;;;;2.73;100.00;98432.30;270586;1266;22833;-91
2023/11/19 14:27:02;;;;;;;28.60;15.80;;;;;;;2.73;100.00;98428.42;271004;1265;23272;-90
2023/11/19 14:33:05;;;;;;;28.30;15.80;;;;;;;2.74;100.00;98424.08;271299;1266;22791;-92
2023/11/19 14:39:08;;;;;;;36.30;19.60;;;;;;;2.76;100.00;98416.62;270965;1266;22558;-91
2023/11/19 14:45:12;;;;;;;31.60;17.90;;;;;;;2.77;100.00;98412.02;271339;1265;22618;-92
2023/11/19 14:51:14;;;;;;;38.70;20.10;;;;;;;2.75;100.00;98409.74;271055;1266;22553;-92
2023/11/19 14:57:17;;;;;;;28.90;17.10;;;;;;;2.76;100.00;98409.77;270962;1266;24124;-92
2023/11/19 15:03:22;;;;;;;31.90;18.00;;;;;;;2.76;100.00;98406.92;270762;1266;416267;-92
2023/11/19 15:09:24;;;;;;;30.20;17.90;;;;;;;2.71;100.00;98389.85;271063;1266;22587;-91
2023/11/19 15:15:27;;;;;;;32.60;18.70;;;;;;;2.69;100.00;98390.23;271029;1266;22561;-90
2023/11/19 15:21:30;;;;;;;29.40;18.30;;;;;;;2.71;100.00;98383.16;271239;1267;22536;-91
2023/11/19 15:27:33;;;;;;;35.20;20.20;;;;;;;2.75;100.00;98383.24;271278;1266;22566;-90
2023/11/19 15:33:36;;;;;;;32.10;19.40;;;;;;;2.79;100.00;98382.52;270776;1266;22548;-91
2023/11/19 15:39:38;;;;;;;38.40;21.40;;;;;;;2.86;100.00;98377.17;270929;1266;22557;-92
2023/11/19 15:45:41;;;;;;;38.20;23.10;;;;;;;2.90;100.00;98380.33;271054;1266;22588;-92
2023/11/19 15:51:43;;;;;;;35.10;21.40;;;;;;;2.91;100.00;98374.63;270989;1266;22530;-91
2023/11/19 15:57:48;;;;;;;187.40;114.50;;;;;;;2.90;100.00;98371.14;270724;1265;22555;-91
2023/11/19 16:03:52;;;;;;;85.20;50.70;;;;;;;2.94;100.00;98367.45;270878;1265;22606;-91
2023/11/19 16:09:59;;;;;;;93.50;53.40;;;;;;;2.94;100.00;98370.09;270823;1265;22575;-94
2023/11/19 16:16:01;;;;;;;;;;;;;;;2.91;100.00;98362.60;271110;1266;22550;-92
2023/11/19 16:22:09;;;;;;;86.30;46.40;;;;;;;2.97;100.00;98363.58;271197;1265;22552;-91
2023/11/19 16:28:11;;;;;;;70.30;38.50;;;;;;;3.04;100.00;98365.46;271203;1263;23138;-91
2023/11/19 16:41:13;;;;;;;48.00;26.80;;;;;;;3.10;100.00;98363.55;263942;1298;545200;-86
2023/11/19 16:47:17;;;;;;;50.30;27.60;;;;;;;3.08;100.00;98363.27;271514;1280;22341;-86
2023/11/19 16:53:23;;;;;;;44.80;26.00;;;;;;;3.10;100.00;98361.23;267662;1273;5389089;-85
2023/11/19 16:59:48;;;;;;;46.70;28.00;;;;;;;3.12;100.00;98355.81;271988;1278;23499;-87
2023/11/19 17:05:50;;;;;;;49.90;26.70;;;;;;;3.10;100.00;98346.09;271852;1278;22624;-87
2023/11/19 17:11:55;;;;;;;46.80;27.60;;;;;;;3.14;100.00;98338.80;271314;1279;22575;-86
2023/11/19 17:19:13;;;;;;;58.60;31.00;;;;;;;3.16;100.00;98343.65;271228;1273;22435;-86
2023/11/19 17:25:15;;;;;;;59.70;33.60;;;;;;;3.17;100.00;98347.23;271651;1274;25195;-85
2023/11/19 17:31:17;;;;;;;66.20;33.60;;;;;;;3.20;100.00;98343.38;270302;1270;22241;-86
2023/11/19 17:37:19;;;;;;;69.50;36.10;;;;;;;3.19;100.00;98345.06;271630;1272;23002;-85
2023/11/19 17:43:21;;;;;;;70.60;37.60;;;;;;;3.19;100.00;98344.36;271763;1278;22522;-86
2023/11/19 17:49:23;;;;;;;63.90;35.00;;;;;;;3.13;100.00;98345.73;271673;1278;22357;-86
2023/11/19 17:55:25;;;;;;;63.10;35.20;;;;;;;3.02;100.00;98330.80;271666;1270;23171;-86
2023/11/19 18:01:27;;;;;;;73.70;39.10;;;;;;;3.00;100.00;98339.83;272026;1279;23807;-86
2023/11/19 18:07:28;;;;;;;69.90;35.70;;;;;;;2.96;100.00;98345.84;272243;1279;23356;-86
2023/11/19 18:13:30;;;;;;;79.70;41.60;;;;;;;2.92;100.00;98345.39;271905;1279;22224;-86
2023/11/19 18:19:32;;;;;;;79.60;42.20;;;;;;;2.86;100.00;98338.73;271724;1266;22623;-86
2023/11/19 18:26:14;;;;;;;68.90;38.20;;;;;;;2.91;100.00;98340.66;272433;1285;22303;-85
2023/11/19 18:32:50;;;;;;;75.90;41.20;;;;;;;3.01;100.00;98337.02;271957;1279;22225;-87
2023/11/19 18:39:12;;;;;;;75.60;41.40;;;;;;;3.08;100.00;98322.02;271858;1276;23339;-87
2023/11/19 18:45:19;;;;;;;81.10;44.10;;;;;;;3.14;100.00;98315.23;272120;1282;23576;-88
2023/11/19 18:52:01;;;;;;;75.90;40.30;;;;;;;3.22;100.00;98312.84;270175;1278;22551;-87
2023/11/19 18:58:04;;;;;;;64.50;36.20;;;;;;;3.27;100.00;98317.84;270763;1279;22583;-87
2023/11/19 19:04:11;;;;;;;78.90;40.20;;;;;;;3.32;100.00;98319.98;269699;1275;22572;-87
2023/11/19 19:10:14;;;;;;;73.50;40.50;;;;;;;3.37;100.00;98316.35;269454;1270;22401;-85
2023/11/19 19:16:16;;;;;;;82.60;43.40;;;;;;;3.44;100.00;98302.95;271594;1278;22434;-87
2023/11/19 19:22:19;;;;;;;80.20;40.90;;;;;;;3.50;100.00;98296.15;262478;1273;10001913;-87
2023/11/19 19:28:41;;;;;;;80.20;42.20;;;;;;;3.50;100.00;98307.42;269569;1278;22552;-86
2023/11/19 19:34:51;;;;;;;66.60;36.30;;;;;;;3.47;100.00;98318.02;272891;1263;22394;-87
2023/11/19 19:41:07;;;;;;;63.50;34.70;;;;;;;3.43;100.00;98312.25;273995;1266;22219;-87
2023/11/19 19:47:13;;;;;;;51.80;27.60;;;;;;;3.39;100.00;98314.48;273613;1260;22386;-87
2023/11/19 19:53:16;;;;;;;36.50;20.30;;;;;;;3.41;100.00;98309.34;273484;1266;22597;-86
2023/11/19 19:59:18;;;;;;;32.70;17.40;;;;;;;3.41;100.00;98306.33;273906;1266;22289;-86
2023/11/19 20:05:21;;;;;;;30.60;17.10;;;;;;;3.39;100.00;98304.27;273790;1266;22202;-87
2023/11/19 20:11:46;;;;;;;29.70;15.50;;;;;;;3.37;100.00;98306.83;273589;1260;23224;-86
2023/11/19 20:18:09;;;;;;;26.80;14.40;;;;;;;3.37;100.00;98302.67;273569;1263;22507;-89
2023/11/19 20:24:42;;;;;;;34.80;17.80;;;;;;;3.35;100.00;98321.84;273835;1266;22338;-87
2023/11/19 20:30:44;;;;;;;24.70;13.90;;;;;;;3.34;100.00;98319.75;273440;1264;22472;-86
2023/11/19 20:36:46;;;;;;;24.30;12.90;;;;;;;3.32;100.00;98319.60;273675;1263;22194;-87
2023/11/19 20:42:50;;;;;;;24.20;12.30;;;;;;;3.32;100.00;98327.23;273613;1266;22413;-87
2023/11/19 20:48:53;;;;;;;28.80;17.10;;;;;;;3.37;100.00;98334.04;273493;1254;23813;-88
2023/11/19 20:54:55;;;;;;;23.50;13.60;;;;;;;3.54;100.00;98344.73;273582;1266;22522;-88
2023/11/19 21:00:57;;;;;;;26.40;13.90;;;;;;;3.71;100.00;98338.25;272800;1263;22217;-89
2023/11/19 21:07:02;;;;;;;23.00;13.50;;;;;;;3.84;100.00;98338.36;273593;1259;22264;-88
2023/11/19 21:13:04;;;;;;;26.00;13.50;;;;;;;3.90;100.00;98342.77;273823;1266;23075;-88
2023/11/19 21:19:27;;;;;;;28.90;15.70;;;;;;;3.91;100.00;98351.70;273388;1266;22627;-87
2023/11/19 21:25:32;;;;;;;27.80;14.20;;;;;;;3.95;100.00;98354.53;273603;1266;22257;-89
2023/11/19 21:31:38;;;;;;;27.60;14.80;;;;;;;3.99;100.00;98349.23;272665;1263;22650;-88
2023/11/19 21:37:42;;;;;;;;;;;;;;;4.04;100.00;98342.45;272664;1266;22538;-89
2023/11/19 21:44:07;;;;;;;26.80;14.20;;;;;;;4.09;100.00;98348.99;272311;1266;22307;-88
2023/11/19 21:50:11;;;;;;;19.10;11.30;;;;;;;4.13;100.00;98345.95;273957;1268;22194;-88
2023/11/19 21:56:40;;;;;;;19.30;9.10;;;;;;;4.20;100.00;98339.79;272988;1251;24472;-88
2023/11/19 22:03:05;;;;;;;15.20;8.50;;;;;;;4.29;100.00;98334.05;271997;1266;23350;-88
2023/11/19 22:09:28;;;;;;;21.50;10.10;;;;;;;4.35;100.00;98331.59;273966;1266;22187;-89
2023/11/19 22:16:07;;;;;;;23.50;11.00;;;;;;;4.40;100.00;98338.98;273984;1266;22184;-88
2023/11/19 22:22:09;;;;;;;33.00;13.40;;;;;;;4.44;100.00;98329.64;273666;1266;22678;-89
2023/11/19 22:28:14;;;;;;;33.20;13.90;;;;;;;4.46;100.00;98327.66;273667;1266;22390;-88
2023/11/19 22:34:38;;;;;;;25.90;11.90;;;;;;;4.46;100.00;98319.86;273082;1266;23967;-87
2023/11/19 22:40:44;;;;;;;17.00;9.80;;;;;;;4.48;100.00;98317.17;273618;1266;22303;-88
2023/11/19 22:46:46;;;;;;;17.80;11.20;;;;;;;4.50;100.00;98317.48;273564;1266;23022;-89
2023/11/19 22:53:08;;;;;;;24.60;11.80;;;;;;;4.54;100.00;98318.02;273394;1266;23128;-87
2023/11/19 22:59:10;;;;;;;21.50;11.00;;;;;;;4.55;100.00;98324.23;273698;1261;22378;-86
2023/11/19 23:05:13;;;;;;;18.70;9.60;;;;;;;4.57;100.00;98319.56;273540;1266;22201;-87
2023/11/19 23:11:18;;;;;;;22.00;10.70;;;;;;;4.60;100.00;98321.02;274048;1260;22431;-88
2023/11/19 23:17:27;;;;;;;21.00;12.90;;;;;;;4.60;100.00;98332.57;273759;1266;22352;-86
2023/11/19 23:23:28;;;;;;;34.70;18.60;;;;;;;4.61;100.00;98342.50;272956;1266;23806;-87
2023/11/19 23:29:33;;;;;;;41.80;20.60;;;;;;;4.57;100.00;98337.23;272743;1266;22595;-88
2023/11/19 23:35:42;;;;;;;38.10;20.00;;;;;;;4.55;100.00;98332.77;271340;1266;22548;-88
2023/11/19 23:41:49;;;;;;;44.70;22.80;;;;;;;4.58;100.00;98329.03;271938;1264;22566;-89
2023/11/19 23:48:40;;;;;;;20.70;11.90;;;;;;;4.57;100.00;98321.02;271638;1266;22653;-88
2023/11/19 23:55:08;;;;;;;20.30;8.80;;;;;;;4.62;100.00;98321.71;272054;1264;22544;-88
